createdAt,value
2018-04-22T00:01:39.715Z,11.85
2018-04-22T00:04:08.072Z,11.86
2018-04-22T00:06:36.393Z,11.71
2018-04-22T00:09:04.764Z,11.70
2018-04-22T00:11:33.089Z,11.73
2018-04-22T00:14:01.423Z,11.69
2018-04-22T00:16:30.962Z,11.67
2018-04-22T00:18:59.443Z,11.77
2018-04-22T00:21:27.780Z,11.83
2018-04-22T00:23:56.547Z,11.87
2018-04-22T00:26:24.855Z,11.83
2018-04-22T00:28:53.949Z,11.76
2018-04-22T00:31:22.698Z,11.63
2018-04-22T00:33:50.999Z,11.54
2018-04-22T00:36:19.341Z,11.54
2018-04-22T00:38:47.662Z,11.51
2018-04-22T00:41:15.963Z,11.50
2018-04-22T00:43:44.311Z,11.42
2018-04-22T00:46:12.660Z,11.41
2018-04-22T00:48:40.974Z,11.34
2018-04-22T00:51:09.342Z,11.47
2018-04-22T00:53:55.406Z,11.54
2018-04-22T00:56:23.775Z,11.28
2018-04-22T00:58:52.141Z,11.34
2018-04-22T01:01:20.493Z,11.34
2018-04-22T01:03:49.594Z,11.30
2018-04-22T01:06:17.934Z,11.26
2018-04-22T01:08:46.289Z,11.32
2018-04-22T01:11:14.670Z,11.26
2018-04-22T01:13:43.010Z,11.20
2018-04-22T01:16:11.353Z,11.15
2018-04-22T01:18:40.482Z,11.04
2018-04-22T01:21:09.227Z,10.91
2018-04-22T01:23:37.576Z,10.89
2018-04-22T01:26:06.713Z,10.85
2018-04-22T01:28:35.057Z,10.77
2018-04-22T01:31:03.381Z,10.72
2018-04-22T01:33:32.510Z,10.78
2018-04-22T01:36:01.219Z,10.70
2018-04-22T01:38:31.058Z,10.65
2018-04-22T01:40:59.765Z,10.56
2018-04-22T01:43:28.871Z,10.51
2018-04-22T01:45:57.999Z,10.48
2018-04-22T01:48:26.316Z,10.49
2018-04-22T01:50:54.675Z,10.64
2018-04-22T01:53:23.008Z,10.60
2018-04-22T01:55:51.835Z,10.56
2018-04-22T01:58:20.189Z,10.52
2018-04-22T02:00:49.302Z,10.46
2018-04-22T02:03:17.614Z,10.40
2018-04-22T02:05:46.380Z,10.37
2018-04-22T02:08:14.684Z,10.33
2018-04-22T02:10:43.016Z,10.27
2018-04-22T02:13:11.342Z,10.13
2018-04-22T02:15:41.181Z,10.20
2018-04-22T02:18:09.505Z,10.18
2018-04-22T02:20:38.626Z,10.08
2018-04-22T02:23:07.693Z,10.03
2018-04-22T02:25:36.025Z,9.98
2018-04-22T02:28:05.167Z,10.02
2018-04-22T02:30:33.521Z,9.92
2018-04-22T02:33:02.620Z,9.92
2018-04-22T02:35:30.925Z,9.91
2018-04-22T02:37:59.267Z,9.86
2018-04-22T02:40:27.579Z,9.79
2018-04-22T02:42:55.921Z,9.82
2018-04-22T02:45:24.357Z,9.80
2018-04-22T02:47:53.425Z,9.77
2018-04-22T02:50:21.917Z,9.71
2018-04-22T02:52:50.345Z,9.58
2018-04-22T02:55:19.048Z,9.50
2018-04-22T02:57:47.527Z,9.48
2018-04-22T03:00:15.889Z,9.46
2018-04-22T03:02:44.628Z,9.47
2018-04-22T03:05:13.140Z,9.48
2018-04-22T03:07:41.482Z,9.44
2018-04-22T03:10:09.791Z,9.42
2018-04-22T03:12:38.292Z,9.39
2018-04-22T03:15:06.605Z,9.33
2018-04-22T03:17:35.405Z,9.28
2018-04-22T03:20:04.336Z,9.30
2018-04-22T03:22:33.093Z,9.34
2018-04-22T03:25:01.448Z,9.30
2018-04-22T03:27:30.766Z,9.24
2018-04-22T03:29:59.882Z,9.21
2018-04-22T03:32:28.474Z,9.21
2018-04-22T03:34:56.848Z,9.21
2018-04-22T03:37:25.206Z,9.22
2018-04-22T03:39:54.284Z,9.21
2018-04-22T03:42:22.758Z,9.18
2018-04-22T03:44:51.896Z,9.13
2018-04-22T03:47:20.933Z,9.13
2018-04-22T03:49:50.067Z,9.10
2018-04-22T03:52:18.477Z,9.01
2018-04-22T03:54:47.518Z,9.04
2018-04-22T03:57:15.871Z,9.03
2018-04-22T03:59:44.722Z,9.05
2018-04-22T04:02:14.021Z,9.08
2018-04-22T04:04:42.737Z,9.13
2018-04-22T04:07:11.113Z,9.16
2018-04-22T04:09:40.233Z,9.18
2018-04-22T04:12:09.497Z,9.18
2018-04-22T04:14:39.220Z,9.18
2018-04-22T04:17:07.519Z,9.21
2018-04-22T04:22:49.052Z,9.30
2018-04-22T04:28:41.075Z,9.45
2018-04-22T04:31:10.282Z,9.52
2018-04-22T04:33:39.152Z,9.59
2018-04-22T04:36:07.829Z,9.66
2018-04-22T04:38:36.329Z,9.74
2018-04-22T04:41:04.704Z,9.84
2018-04-22T04:43:33.280Z,9.97
2018-04-22T04:46:01.673Z,10.08
2018-04-22T04:48:30.049Z,10.22
2018-04-22T04:50:59.120Z,10.34
2018-04-22T04:53:27.475Z,10.49
2018-04-22T04:55:56.031Z,10.67
2018-04-22T04:58:26.099Z,10.88
2018-04-22T05:00:55.098Z,11.05
2018-04-22T05:03:23.458Z,11.21
2018-04-22T05:05:51.796Z,11.36
2018-04-22T05:08:20.189Z,11.49
2018-04-22T05:10:49.407Z,11.62
2018-04-22T05:13:17.848Z,11.72
2018-04-22T05:15:46.210Z,11.85
2018-04-22T05:18:14.648Z,11.94
2018-04-22T05:20:44.939Z,12.00
2018-04-22T05:23:13.408Z,12.06
2018-04-22T05:25:44.242Z,12.14
2018-04-22T05:28:13.782Z,12.20
2018-04-22T05:30:42.118Z,12.22
2018-04-22T05:33:10.468Z,12.26
2018-04-22T05:35:38.964Z,12.28
2018-04-22T05:38:07.672Z,12.31
2018-04-22T05:40:36.489Z,12.35
2018-04-22T05:43:04.852Z,12.41
2018-04-22T05:45:34.096Z,12.50
2018-04-22T05:48:02.536Z,12.57
2018-04-22T05:50:31.359Z,12.65
2018-04-22T05:53:01.779Z,12.74
2018-04-22T05:55:32.004Z,12.85
2018-04-22T05:58:01.131Z,12.93
2018-04-22T06:00:30.500Z,12.99
2018-04-22T06:02:58.828Z,13.03
2018-04-22T06:05:28.822Z,13.09
2018-04-22T06:07:58.736Z,13.11
2018-04-22T06:10:29.672Z,13.19
2018-04-22T06:12:58.244Z,13.25
2018-04-22T06:15:26.696Z,13.33
2018-04-22T06:17:57.673Z,13.43
2018-04-22T06:20:27.545Z,13.52
2018-04-22T06:22:56.637Z,13.58
2018-04-22T06:25:25.132Z,13.66
2018-04-22T06:27:53.468Z,13.75
2018-04-22T06:30:22.591Z,13.86
2018-04-22T06:32:51.407Z,13.95
2018-04-22T06:35:20.980Z,14.04
2018-04-22T06:37:50.308Z,14.11
2018-04-22T06:40:19.843Z,14.21
2018-04-22T06:42:48.288Z,14.28
2018-04-22T06:45:17.390Z,14.38
2018-04-22T06:47:46.572Z,14.47
2018-04-22T06:50:14.976Z,14.59
2018-04-22T06:52:43.941Z,14.69
2018-04-22T06:55:12.308Z,14.83
2018-04-22T06:57:41.126Z,14.93
2018-04-22T07:00:10.627Z,15.02
2018-04-22T07:02:39.874Z,15.14
2018-04-22T07:05:08.724Z,15.22
2018-04-22T07:07:37.883Z,15.33
2018-04-22T07:10:06.297Z,15.44
2018-04-22T07:12:34.806Z,15.56
2018-04-22T07:15:04.068Z,15.65
2018-04-22T07:17:32.431Z,15.78
2018-04-22T07:20:01.300Z,15.95
2018-04-22T07:22:30.490Z,16.06
2018-04-22T07:24:59.714Z,16.17
2018-04-22T07:27:28.078Z,16.30
2018-04-22T07:29:57.817Z,16.40
2018-04-22T07:32:26.947Z,16.48
2018-04-22T07:34:55.293Z,16.60
2018-04-22T07:37:24.109Z,16.71
2018-04-22T07:39:52.831Z,16.76
2018-04-22T07:42:21.244Z,16.80
2018-04-22T07:44:50.339Z,16.85
2018-04-22T07:47:19.303Z,17.02
2018-04-22T07:49:48.426Z,17.16
2018-04-22T07:52:16.787Z,17.19
2018-04-22T07:54:45.174Z,17.28
2018-04-22T07:57:13.909Z,17.34
2018-04-22T07:59:43.816Z,17.44
2018-04-22T08:02:12.177Z,17.53
2018-04-22T08:04:40.514Z,17.60
2018-04-22T08:07:09.919Z,17.68
2018-04-22T08:09:38.285Z,17.77
2018-04-22T08:12:07.365Z,17.86
2018-04-22T08:14:35.731Z,17.89
2018-04-22T08:17:04.107Z,17.90
2018-04-22T08:19:32.422Z,17.98
2018-04-22T08:22:01.147Z,18.11
2018-04-22T08:24:29.465Z,18.23
2018-04-22T08:26:57.808Z,18.31
2018-04-22T08:29:26.141Z,18.43
2018-04-22T08:31:55.249Z,18.52
2018-04-22T08:34:24.394Z,18.52
2018-04-22T08:36:54.249Z,18.55
2018-04-22T08:39:23.019Z,18.67
2018-04-22T08:41:51.747Z,18.79
2018-04-22T08:44:20.814Z,18.87
2018-04-22T08:46:49.933Z,18.91
2018-04-22T08:49:18.267Z,18.96
2018-04-22T08:51:47.419Z,18.97
2018-04-22T08:54:17.095Z,18.99
2018-04-22T08:56:46.245Z,19.02
2018-04-22T08:59:15.355Z,19.07
2018-04-22T09:01:44.475Z,19.16
2018-04-22T09:04:13.610Z,19.19
2018-04-22T09:06:41.961Z,19.21
2018-04-22T09:09:10.671Z,19.26
2018-04-22T09:11:39.793Z,19.28
2018-04-22T09:14:08.874Z,19.28
2018-04-22T09:16:37.302Z,19.43
2018-04-22T09:19:06.525Z,19.57
2018-04-22T09:21:35.280Z,19.59
2018-04-22T09:24:03.653Z,19.66
2018-04-22T09:26:34.538Z,19.66
2018-04-22T09:29:03.685Z,19.61
2018-04-22T09:31:32.793Z,19.68
2018-04-22T09:34:01.160Z,19.67
2018-04-22T09:36:30.265Z,19.71
2018-04-22T09:38:59.418Z,19.77
2018-04-22T09:41:27.817Z,19.77
2018-04-22T09:43:57.211Z,19.72
2018-04-22T09:46:25.962Z,19.78
2018-04-22T09:48:54.384Z,19.83
2018-04-22T09:51:23.248Z,19.81
2018-04-22T09:53:52.497Z,19.87
2018-04-22T09:56:22.720Z,19.88
2018-04-22T09:58:51.841Z,19.91
2018-04-22T10:01:20.975Z,19.99
2018-04-22T10:03:49.333Z,20.05
2018-04-22T10:06:18.829Z,20.10
2018-04-22T10:08:47.200Z,20.23
2018-04-22T10:11:17.049Z,20.37
2018-04-22T10:13:45.595Z,20.42
2018-04-22T10:16:13.916Z,20.35
2018-04-22T10:18:42.337Z,20.32
2018-04-22T10:21:12.865Z,20.32
2018-04-22T10:23:41.217Z,20.38
2018-04-22T10:26:10.091Z,20.43
2018-04-22T10:28:40.101Z,20.48
2018-04-22T10:31:08.674Z,20.60
2018-04-22T10:33:38.351Z,20.68
2018-04-22T10:36:07.151Z,20.62
2018-04-22T10:38:35.913Z,20.73
2018-04-22T10:41:04.289Z,20.79
2018-04-22T10:43:32.646Z,20.89
2018-04-22T10:46:01.550Z,20.94
2018-04-22T10:48:31.299Z,20.94
2018-04-22T10:51:00.382Z,21.01
2018-04-22T10:53:29.684Z,20.95
2018-04-22T10:55:58.505Z,21.02
2018-04-22T10:58:26.881Z,21.21
2018-04-22T11:00:55.240Z,21.25
2018-04-22T11:03:23.637Z,21.24
2018-04-22T11:05:52.817Z,21.23
2018-04-22T11:08:21.167Z,21.13
2018-04-22T11:10:50.028Z,21.14
2018-04-22T11:13:18.909Z,21.19
2018-04-22T11:15:48.969Z,21.21
2018-04-22T11:18:17.336Z,21.16
2018-04-22T11:20:46.853Z,21.16
2018-04-22T11:23:16.329Z,21.18
2018-04-22T11:25:44.740Z,21.29
2018-04-22T11:28:13.700Z,21.28
2018-04-22T11:30:42.925Z,21.33
2018-04-22T11:33:12.238Z,21.48
2018-04-22T11:35:41.777Z,21.54
2018-04-22T11:38:15.517Z,21.53
2018-04-22T11:40:46.069Z,21.53
2018-04-22T11:43:15.286Z,21.64
2018-04-22T11:45:43.837Z,21.63
2018-04-22T11:48:13.404Z,21.73
2018-04-22T11:50:41.745Z,21.80
2018-04-22T11:53:10.177Z,21.84
2018-04-22T11:55:39.297Z,21.94
2018-04-22T11:58:07.660Z,21.93
2018-04-22T12:00:36.773Z,21.90
2018-04-22T12:03:05.245Z,22.01
2018-04-22T12:05:33.594Z,22.02
2018-04-22T12:08:01.941Z,22.05
2018-04-22T12:10:30.873Z,22.10
2018-04-22T12:13:00.037Z,22.15
2018-04-22T12:15:29.239Z,22.08
2018-04-22T12:17:57.581Z,22.06
2018-04-22T12:20:28.215Z,22.08
2018-04-22T12:22:57.450Z,22.04
2018-04-22T12:25:25.929Z,22.11
2018-04-22T12:27:56.523Z,22.16
2018-04-22T12:30:25.805Z,22.23
2018-04-22T12:32:55.067Z,22.30
2018-04-22T12:35:23.392Z,22.42
2018-04-22T12:37:51.863Z,22.61
2018-04-22T12:40:21.128Z,22.70
2018-04-22T12:42:49.584Z,22.66
2018-04-22T12:45:17.883Z,22.75
2018-04-22T12:47:48.048Z,22.66
2018-04-22T12:50:17.236Z,22.63
2018-04-22T12:52:47.869Z,22.62
2018-04-22T12:55:19.760Z,22.58
2018-04-22T12:57:48.142Z,22.62
2018-04-22T13:00:16.773Z,22.50
2018-04-22T13:02:45.141Z,22.57
2018-04-22T13:05:14.215Z,22.50
2018-04-22T13:07:42.589Z,22.53
2018-04-22T13:10:11.912Z,22.65
2018-04-22T13:12:40.377Z,22.79
2018-04-22T13:15:09.147Z,22.78
2018-04-22T13:17:37.626Z,22.77
2018-04-22T13:20:06.157Z,22.78
2018-04-22T13:22:34.840Z,22.84
2018-04-22T13:25:04.030Z,22.92
2018-04-22T13:27:33.752Z,22.97
2018-04-22T13:30:02.249Z,23.11
2018-04-22T13:32:30.606Z,23.20
2018-04-22T13:34:59.732Z,23.26
2018-04-22T13:37:28.062Z,23.32
2018-04-22T13:39:56.395Z,23.34
2018-04-22T13:42:24.774Z,23.40
2018-04-22T13:44:53.102Z,23.42
2018-04-22T13:47:22.372Z,23.51
2018-04-22T13:49:50.752Z,23.52
2018-04-22T13:52:19.204Z,23.52
2018-04-22T13:54:47.602Z,23.53
2018-04-22T13:57:16.062Z,23.62
2018-04-22T13:59:44.448Z,23.68
2018-04-22T14:02:13.592Z,23.65
2018-04-22T14:07:25.386Z,23.64
2018-04-22T14:09:54.907Z,23.64
2018-04-22T14:12:24.014Z,23.58
2018-04-22T14:14:54.123Z,23.41
2018-04-22T14:17:23.241Z,23.41
2018-04-22T14:19:52.601Z,23.44
2018-04-22T14:22:20.930Z,23.40
2018-04-22T14:24:49.359Z,23.36
2018-04-22T14:27:17.712Z,23.40
2018-04-22T14:29:47.406Z,23.39
2018-04-22T14:32:15.852Z,23.39
2018-04-22T14:34:44.242Z,23.43
2018-04-22T14:37:12.654Z,23.43
2018-04-22T14:39:40.978Z,23.43
2018-04-22T14:42:09.334Z,23.38
2018-04-22T14:44:55.275Z,23.36
2018-04-22T14:47:23.601Z,23.35
2018-04-22T14:49:51.974Z,23.35
2018-04-22T14:52:20.325Z,23.37
2018-04-22T14:54:48.651Z,23.38
2018-04-22T14:57:17.772Z,23.38
2018-04-22T14:59:46.093Z,23.40
2018-04-22T15:02:14.465Z,23.44
2018-04-22T15:04:42.811Z,23.48
2018-04-22T15:07:11.163Z,23.61
2018-04-22T15:09:40.303Z,23.70
2018-04-22T15:12:08.637Z,23.80
2018-04-22T15:14:37.862Z,23.88
2018-04-22T15:17:06.178Z,23.94
2018-04-22T15:19:34.542Z,24.00
2018-04-22T15:22:02.877Z,24.13
2018-04-22T15:24:31.213Z,24.22
2018-04-22T15:26:59.560Z,24.24
2018-04-22T15:29:27.892Z,24.32
2018-04-22T15:31:57.051Z,24.47
2018-04-22T15:34:25.394Z,24.62
2018-04-22T15:36:53.751Z,24.80
2018-04-22T15:39:22.865Z,24.97
2018-04-22T15:41:51.211Z,25.02
2018-04-22T15:44:19.499Z,25.00
2018-04-22T15:46:48.627Z,24.99
2018-04-22T15:49:16.935Z,24.99
2018-04-22T15:51:45.325Z,24.96
2018-04-22T15:54:13.609Z,24.91
2018-04-22T15:56:41.916Z,24.85
2018-04-22T15:59:10.274Z,24.77
2018-04-22T16:01:39.411Z,24.68
2018-04-22T16:04:07.764Z,24.45
2018-04-22T16:06:36.109Z,24.44
2018-04-22T16:09:04.413Z,24.38
2018-04-22T16:11:32.783Z,24.33
2018-04-22T16:14:01.911Z,24.30
2018-04-22T16:16:30.297Z,24.25
2018-04-22T16:18:58.642Z,24.21
2018-04-22T16:21:27.790Z,24.13
2018-04-22T16:23:56.186Z,24.05
2018-04-22T16:26:24.518Z,23.96
2018-04-22T16:28:52.838Z,23.88
2018-04-22T16:31:21.168Z,23.74
2018-04-22T16:33:49.506Z,23.66
2018-04-22T16:36:17.868Z,23.60
2018-04-22T16:38:46.230Z,23.58
2018-04-22T16:41:14.562Z,23.57
2018-04-22T16:43:43.112Z,23.53
2018-04-22T16:46:11.475Z,23.42
2018-04-22T16:48:39.838Z,23.29
2018-04-22T16:51:09.025Z,23.21
2018-04-22T16:53:37.375Z,23.12
2018-04-22T16:56:05.776Z,23.02
2018-04-22T16:58:34.102Z,22.90
2018-04-22T17:01:02.529Z,22.77
2018-04-22T17:03:30.893Z,22.64
2018-04-22T17:05:59.308Z,22.50
2018-04-22T17:08:27.791Z,22.40
2018-04-22T17:10:56.568Z,22.31
2018-04-22T17:13:24.946Z,22.23
2018-04-22T17:15:53.349Z,22.09
2018-04-22T17:18:21.719Z,21.95
2018-04-22T17:20:50.940Z,21.92
2018-04-22T17:23:19.960Z,21.79
2018-04-22T17:25:49.072Z,21.63
2018-04-22T17:28:17.432Z,21.51
2018-04-22T17:30:46.693Z,21.41
2018-04-22T17:33:16.554Z,21.32
2018-04-22T17:35:44.881Z,21.24
2018-04-22T17:38:13.264Z,21.17
2018-04-22T17:40:41.597Z,21.07
2018-04-22T17:43:09.981Z,21.11
2018-04-22T17:45:38.337Z,21.22
2018-04-22T17:48:07.025Z,21.09
2018-04-22T17:50:35.394Z,20.93
2018-04-22T17:53:04.705Z,20.82
2018-04-22T17:55:33.116Z,20.70
2018-04-22T17:58:01.832Z,20.66
2018-04-22T18:00:30.171Z,20.55
2018-04-22T18:02:58.561Z,20.44
2018-04-22T18:05:26.918Z,20.25
2018-04-22T18:07:55.253Z,20.08
2018-04-22T18:10:24.380Z,19.89
2018-04-22T18:12:52.697Z,19.74
2018-04-22T18:15:21.063Z,19.66
2018-04-22T18:17:49.408Z,19.60
2018-04-22T18:20:17.761Z,19.52
2018-04-22T18:22:46.131Z,19.32
2018-04-22T18:25:14.462Z,19.29
2018-04-22T18:27:43.760Z,19.24
2018-04-22T18:30:12.145Z,19.28
2018-04-22T18:32:40.484Z,19.20
2018-04-22T18:35:09.597Z,19.27
2018-04-22T18:37:37.968Z,19.14
2018-04-22T18:40:06.317Z,18.91
2018-04-22T18:42:34.666Z,18.81
2018-04-22T18:45:03.024Z,18.89
2018-04-22T18:47:31.418Z,18.78
2018-04-22T18:49:59.817Z,18.73
2018-04-22T18:52:29.667Z,18.73
2018-04-22T18:54:58.813Z,18.67
2018-04-22T18:57:27.152Z,18.65
2018-04-22T18:59:55.513Z,18.57
2018-04-22T19:02:24.624Z,18.68
2018-04-22T19:04:52.992Z,18.73
2018-04-22T19:07:21.307Z,18.58
2018-04-22T19:09:49.663Z,18.44
2018-04-22T19:12:17.997Z,18.33
2018-04-22T19:14:46.383Z,18.28
2018-04-22T19:17:15.690Z,18.17
2018-04-22T19:19:45.559Z,18.06
2018-04-22T19:22:13.949Z,18.03
2018-04-22T19:24:42.322Z,18.03
2018-04-22T19:27:10.689Z,18.09
2018-04-22T19:29:39.065Z,18.03
2018-04-22T19:32:07.433Z,17.99
2018-04-22T19:34:36.488Z,17.91
2018-04-22T19:37:05.613Z,17.89
2018-04-22T19:39:33.967Z,18.00
2018-04-22T19:42:03.104Z,17.99
2018-04-22T19:44:31.428Z,18.02
2018-04-22T19:47:00.566Z,17.99
2018-04-22T19:49:28.994Z,17.97
2018-04-22T19:51:57.383Z,18.05
2018-04-22T19:54:25.795Z,17.91
2018-04-22T19:56:54.884Z,17.86
2018-04-22T19:59:24.213Z,17.77
2018-04-22T20:01:52.566Z,17.80
2018-04-22T20:04:20.935Z,18.10
2018-04-22T20:06:49.323Z,18.10
2018-04-22T20:09:17.679Z,18.01
2018-04-22T20:11:46.803Z,17.88
2018-04-22T20:14:15.157Z,17.97
2018-04-22T20:16:43.559Z,17.91
2018-04-22T20:19:11.885Z,17.84
2018-04-22T20:21:40.243Z,17.74
2018-04-22T20:24:08.573Z,17.65
2018-04-22T20:26:36.962Z,17.62
2018-04-22T20:29:05.283Z,17.62
2018-04-22T20:31:33.637Z,17.72
2018-04-22T20:34:01.983Z,17.79
2018-04-22T20:36:30.348Z,17.82
2018-04-22T20:38:59.479Z,17.73
2018-04-22T20:41:27.802Z,17.61
2018-04-22T20:43:56.583Z,17.56
2018-04-22T20:46:24.950Z,17.54
2018-04-22T20:48:53.291Z,17.55
2018-04-22T20:51:22.395Z,17.49
2018-04-22T20:53:50.803Z,17.40
2018-04-22T20:56:19.179Z,17.28
2018-04-22T20:58:47.521Z,17.18
2018-04-22T21:01:15.870Z,17.16
2018-04-22T21:03:44.232Z,17.16
2018-04-22T21:06:12.550Z,17.12
2018-04-22T21:08:40.900Z,17.05
2018-04-22T21:11:09.997Z,16.97
2018-04-22T21:13:39.122Z,16.87
2018-04-22T21:16:07.469Z,16.78
2018-04-22T21:18:36.703Z,16.76
2018-04-22T21:21:05.964Z,16.76
2018-04-22T21:23:35.098Z,16.84
2018-04-22T21:26:04.222Z,16.87
2018-04-22T21:28:32.566Z,16.79
2018-04-22T21:31:00.900Z,16.75
2018-04-22T21:33:30.002Z,16.78
2018-04-22T21:35:58.350Z,16.84
2018-04-22T21:38:26.701Z,16.84
2018-04-22T21:40:55.073Z,16.82
2018-04-22T21:43:23.391Z,16.76
2018-04-22T21:45:51.753Z,16.67
2018-04-22T21:48:20.211Z,16.60
2018-04-22T21:50:48.553Z,16.56
2018-04-22T21:53:17.698Z,16.50
2018-04-22T21:55:46.062Z,16.43
2018-04-22T21:58:14.444Z,16.38
2018-04-22T22:00:42.781Z,16.38
2018-04-22T22:03:11.148Z,16.35
2018-04-22T22:05:39.508Z,16.28
2018-04-22T22:08:07.837Z,16.22
2018-04-22T22:10:36.215Z,16.18
2018-04-22T22:13:04.531Z,16.17
2018-04-22T22:15:32.885Z,16.16
2018-04-22T22:18:01.265Z,16.11
2018-04-22T22:20:29.793Z,16.03
2018-04-22T22:22:58.137Z,15.97
2018-04-22T22:25:26.524Z,15.92
2018-04-22T22:27:54.886Z,15.90
2018-04-22T22:30:23.235Z,15.89
2018-04-22T22:32:51.579Z,15.89
2018-04-22T22:35:19.939Z,15.81
2018-04-22T22:37:48.310Z,15.74
2018-04-22T22:40:17.400Z,15.73
2018-04-22T22:42:45.772Z,15.69
2018-04-22T22:45:14.087Z,15.61
2018-04-22T22:47:42.416Z,15.56
2018-04-22T22:50:10.779Z,15.55
2018-04-22T22:52:39.136Z,15.55
2018-04-22T22:55:08.218Z,15.58
2018-04-22T22:57:37.382Z,15.60
2018-04-22T23:00:05.747Z,15.63
2018-04-22T23:02:34.096Z,15.66
2018-04-22T23:05:03.203Z,15.70
2018-04-22T23:07:31.572Z,15.70
2018-04-22T23:09:59.893Z,15.63
2018-04-22T23:12:28.241Z,15.59
2018-04-22T23:14:56.606Z,15.59
2018-04-22T23:17:24.929Z,15.62
2018-04-22T23:19:53.264Z,16.40
2018-04-22T23:22:21.632Z,16.40
2018-04-22T23:24:49.946Z,16.22
2018-04-22T23:27:18.320Z,16.51
2018-04-22T23:29:46.647Z,16.58
2018-04-22T23:32:15.795Z,16.47
2018-04-22T23:34:44.124Z,16.48
2018-04-22T23:37:13.260Z,16.77
2018-04-22T23:39:41.615Z,16.60
2018-04-22T23:42:09.987Z,16.50
2018-04-22T23:44:38.323Z,16.34
2018-04-22T23:47:06.706Z,16.20
2018-04-22T23:49:35.023Z,16.17
2018-04-22T23:52:03.763Z,16.31
2018-04-22T23:54:32.115Z,16.27
2018-04-22T23:57:00.421Z,16.23
2018-04-22T23:59:28.798Z,16.16
